createdAt,value
2022-11-29T00:02:20.537Z,49.30
2022-11-29T00:04:53.282Z,43.10
2022-11-29T00:07:26.089Z,43.60
2022-11-29T00:09:58.730Z,42.50
2022-11-29T00:12:31.305Z,46.90
2022-11-29T00:15:04.015Z,39.10
2022-11-29T00:17:37.274Z,50.60
2022-11-29T00:20:12.488Z,42.20
2022-11-29T00:22:44.939Z,42.70
2022-11-29T00:25:17.852Z,48.60
2022-11-29T00:27:51.515Z,51.10
2022-11-29T00:30:25.005Z,39.20
2022-11-29T00:32:57.691Z,48.00
2022-11-29T00:35:30.362Z,50.50
2022-11-29T00:38:02.938Z,42.90
2022-11-29T00:40:35.674Z,47.40
2022-11-29T00:43:08.234Z,53.80
2022-11-29T00:45:40.850Z,46.90
2022-11-29T00:48:13.360Z,45.80
2022-11-29T00:50:45.958Z,39.60
2022-11-29T00:53:18.511Z,48.30
2022-11-29T00:55:52.366Z,50.30
2022-11-29T00:58:25.949Z,55.20
2022-11-29T01:00:58.694Z,48.00
2022-11-29T01:03:31.699Z,48.30
2022-11-29T01:06:08.502Z,40.00
2022-11-29T01:08:41.642Z,52.00
2022-11-29T01:11:18.167Z,42.50
2022-11-29T01:13:52.186Z,52.10
2022-11-29T01:16:25.514Z,48.40
2022-11-29T01:18:58.606Z,40.90
2022-11-29T01:21:31.809Z,41.10
2022-11-29T01:24:04.662Z,40.00
2022-11-29T01:26:37.212Z,39.90
2022-11-29T01:29:13.315Z,44.30
2022-11-29T01:31:45.851Z,44.00
2022-11-29T01:34:18.279Z,40.90
2022-11-29T01:36:50.791Z,37.40
2022-11-29T01:39:23.243Z,46.30
2022-11-29T01:41:55.774Z,46.90
2022-11-29T01:45:07.970Z,47.50
2022-11-29T01:47:44.994Z,41.70
2022-11-29T01:50:17.796Z,42.60
2022-11-29T01:52:50.720Z,38.20
2022-11-29T01:58:29.609Z,43.40
2022-11-29T02:01:03.247Z,42.20
2022-11-29T02:03:36.013Z,40.10
2022-11-29T02:06:09.143Z,39.20
2022-11-29T02:08:44.135Z,40.30
2022-11-29T02:12:07.444Z,35.20
2022-11-29T02:14:55.315Z,36.20
2022-11-29T02:17:43.426Z,33.10
2022-11-29T02:20:46.050Z,39.80
2022-11-29T02:23:48.951Z,33.10
2022-11-29T02:26:44.547Z,34.70
2022-11-29T02:30:01.770Z,25.10
2022-11-29T02:33:29.161Z,38.00
2022-11-29T02:36:42.546Z,34.60
2022-11-29T02:39:52.943Z,36.60
2022-11-29T02:42:56.804Z,33.70
2022-11-29T02:45:59.835Z,50.20
2022-11-29T02:48:53.637Z,43.40
2022-11-29T02:51:35.461Z,34.30
2022-11-29T02:54:16.904Z,38.80
2022-11-29T02:56:56.910Z,37.50
2022-11-29T02:59:52.048Z,33.30
2022-11-29T03:02:34.776Z,32.70
2022-11-29T03:05:20.045Z,39.70
2022-11-29T03:08:01.848Z,33.20
2022-11-29T03:10:47.314Z,36.20
2022-11-29T03:13:26.720Z,38.00
2022-11-29T03:16:10.116Z,29.00
2022-11-29T03:19:01.297Z,32.50
2022-11-29T03:21:47.565Z,36.40
2022-11-29T03:24:27.147Z,37.90
2022-11-29T03:27:07.740Z,38.30
2022-11-29T03:29:46.973Z,44.80
2022-11-29T03:32:28.875Z,35.70
2022-11-29T03:35:08.682Z,41.50
2022-11-29T03:37:51.658Z,41.60
2022-11-29T03:40:30.643Z,39.50
2022-11-29T03:43:08.943Z,46.00
2022-11-29T03:45:50.230Z,44.40
2022-11-29T03:48:29.043Z,38.20
2022-11-29T03:51:06.977Z,34.60
2022-11-29T03:53:49.770Z,39.20
2022-11-29T03:56:33.479Z,35.20
2022-11-29T03:59:26.471Z,35.00
2022-11-29T04:02:38.552Z,37.70
2022-11-29T04:05:47.295Z,40.50
2022-11-29T04:08:54.236Z,39.30
2022-11-29T04:12:05.826Z,49.20
2022-11-29T04:15:18.690Z,41.80
2022-11-29T04:18:48.037Z,40.20
2022-11-29T04:21:57.158Z,41.40
2022-11-29T04:25:06.730Z,36.20
2022-11-29T04:27:54.586Z,42.40
2022-11-29T04:30:29.220Z,36.60
2022-11-29T04:33:47.978Z,41.40
2022-11-29T04:36:55.638Z,35.80
2022-11-29T04:39:51.966Z,34.00
2022-11-29T04:43:02.543Z,32.00
2022-11-29T04:46:14.438Z,43.10
2022-11-29T04:49:09.798Z,36.90
2022-11-29T04:52:05.663Z,51.80
2022-11-29T04:54:47.217Z,44.80
2022-11-29T04:57:29.408Z,46.30
2022-11-29T05:00:10.492Z,46.20
2022-11-29T05:02:55.544Z,44.10
2022-11-29T05:05:42.495Z,53.60
2022-11-29T05:08:34.588Z,48.20
2022-11-29T05:11:20.827Z,44.30
2022-11-29T05:14:06.286Z,40.20
2022-11-29T05:17:01.066Z,44.80
2022-11-29T05:20:00.960Z,39.10
2022-11-29T05:22:48.931Z,35.80
2022-11-29T05:25:43.852Z,39.60
2022-11-29T05:28:26.854Z,38.00
2022-11-29T05:31:20.123Z,39.90
2022-11-29T05:34:20.124Z,37.60
2022-11-29T05:37:02.566Z,38.70
2022-11-29T05:39:47.990Z,33.40
2022-11-29T05:42:43.030Z,35.80
2022-11-29T05:45:21.856Z,45.70
2022-11-29T05:48:03.326Z,34.90
2022-11-29T05:50:42.628Z,38.60
2022-11-29T05:53:26.246Z,47.30
2022-11-29T05:56:10.571Z,38.50
2022-11-29T05:58:51.810Z,49.20
2022-11-29T06:01:31.857Z,56.00
2022-11-29T06:04:14.774Z,52.10
2022-11-29T06:06:53.926Z,44.20
2022-11-29T06:09:31.846Z,43.40
2022-11-29T06:12:08.330Z,41.10
2022-11-29T06:15:06.446Z,46.60
2022-11-29T06:18:02.853Z,41.30
2022-11-29T06:21:07.615Z,42.00
2022-11-29T06:24:12.360Z,41.80
2022-11-29T06:27:09.761Z,32.60
2022-11-29T06:29:50.055Z,35.80
2022-11-29T06:32:34.265Z,34.20
2022-11-29T06:35:13.527Z,33.10
2022-11-29T06:37:50.717Z,43.10
2022-11-29T06:40:24.390Z,34.00
2022-11-29T06:42:57.488Z,35.40
2022-11-29T06:45:31.875Z,39.40
2022-11-29T06:48:08.012Z,40.00
2022-11-29T06:50:54.874Z,32.90
2022-11-29T06:53:38.434Z,39.20
2022-11-29T06:56:20.670Z,32.40
2022-11-29T06:59:03.405Z,34.90
2022-11-29T07:01:44.473Z,36.60
2022-11-29T07:04:46.756Z,36.80
2022-11-29T07:07:23.970Z,39.20
2022-11-29T07:10:00.746Z,30.30
2022-11-29T07:12:34.677Z,36.90
2022-11-29T07:15:11.022Z,31.90
2022-11-29T07:17:56.260Z,32.20
2022-11-29T07:20:38.158Z,36.50
2022-11-29T07:23:26.714Z,36.30
2022-11-29T07:26:16.893Z,35.70
2022-11-29T07:29:10.708Z,31.40
2022-11-29T07:31:57.171Z,35.20
2022-11-29T07:34:37.418Z,38.20
2022-11-29T07:37:21.473Z,35.40
2022-11-29T07:40:04.170Z,37.80
2022-11-29T07:42:49.891Z,42.20
2022-11-29T07:45:28.938Z,36.70
2022-11-29T07:48:01.704Z,43.10
2022-11-29T07:50:36.402Z,36.00
2022-11-29T07:53:10.578Z,40.20
2022-11-29T07:55:43.130Z,38.10
2022-11-29T07:58:18.122Z,33.10
2022-11-29T08:00:50.809Z,36.00
2022-11-29T08:03:23.352Z,33.60
2022-11-29T08:05:56.124Z,36.60
2022-11-29T08:08:28.681Z,42.10
2022-11-29T08:11:01.582Z,44.30
2022-11-29T08:13:34.157Z,43.80
2022-11-29T08:16:06.846Z,41.10
2022-11-29T08:18:40.415Z,36.30
2022-11-29T08:21:18.093Z,38.10
2022-11-29T08:23:52.148Z,43.80
2022-11-29T08:26:29.827Z,38.40
2022-11-29T08:29:04.152Z,45.50
2022-11-29T08:31:36.883Z,43.60
2022-11-29T08:34:11.520Z,40.50
2022-11-29T08:36:43.955Z,40.80
2022-11-29T08:39:16.611Z,43.00
2022-11-29T08:41:49.732Z,36.10
2022-11-29T08:44:22.420Z,35.80
2022-11-29T08:47:12.656Z,36.90
2022-11-29T08:50:00.063Z,38.90
2022-11-29T08:52:51.443Z,47.90
2022-11-29T08:55:26.453Z,44.90
2022-11-29T08:58:04.462Z,39.90
2022-11-29T09:00:38.054Z,36.20
2022-11-29T09:03:25.236Z,44.00
2022-11-29T09:05:57.805Z,41.00
2022-11-29T09:08:30.338Z,38.40
2022-11-29T09:11:08.040Z,38.60
2022-11-29T09:13:41.024Z,38.30
2022-11-29T09:16:18.101Z,45.20
2022-11-29T09:18:52.088Z,36.10
2022-11-29T09:21:26.547Z,40.60
2022-11-29T09:24:02.877Z,33.20
2022-11-29T09:26:40.825Z,39.40
2022-11-29T09:29:13.636Z,35.50
2022-11-29T09:31:46.561Z,35.90
2022-11-29T09:34:19.929Z,32.80
2022-11-29T09:36:52.491Z,35.10
2022-11-29T09:39:25.276Z,35.10
2022-11-29T09:42:36.225Z,36.90
2022-11-29T09:45:16.825Z,39.10
2022-11-29T09:50:53.352Z,37.00
2022-11-29T09:53:43.747Z,35.00
2022-11-29T09:56:29.804Z,43.40
2022-11-29T09:59:06.918Z,32.10
2022-11-29T10:01:44.165Z,37.00
2022-11-29T10:04:24.009Z,35.20
2022-11-29T10:07:07.401Z,31.10
2022-11-29T10:09:46.119Z,34.30
2022-11-29T10:12:23.137Z,34.00
2022-11-29T10:15:03.776Z,32.10
2022-11-29T10:17:42.845Z,39.30
2022-11-29T10:20:20.994Z,32.70
2022-11-29T10:22:56.995Z,34.60
2022-11-29T10:25:35.087Z,34.50
2022-11-29T10:28:14.567Z,33.40
2022-11-29T10:30:48.476Z,42.70
2022-11-29T10:33:26.527Z,33.30
2022-11-29T10:36:04.271Z,45.10
2022-11-29T10:38:36.932Z,41.60
2022-11-29T10:41:14.719Z,46.10
2022-11-29T10:43:47.616Z,37.80
2022-11-29T10:46:29.995Z,49.50
2022-11-29T10:49:06.535Z,35.10
2022-11-29T10:51:39.349Z,42.10
2022-11-29T10:54:28.423Z,47.50
2022-11-29T10:57:02.315Z,40.00
2022-11-29T10:59:35.113Z,35.20
2022-11-29T11:02:16.720Z,42.30
2022-11-29T11:04:50.329Z,44.10
2022-11-29T11:07:33.412Z,40.20
2022-11-29T11:10:23.289Z,37.00
2022-11-29T11:13:08.666Z,39.00
2022-11-29T11:15:42.059Z,34.00
2022-11-29T11:18:25.618Z,33.70
2022-11-29T11:21:02.137Z,35.30
2022-11-29T11:23:42.344Z,39.60
2022-11-29T11:26:17.374Z,42.10
2022-11-29T11:28:57.025Z,54.70
2022-11-29T11:31:35.531Z,54.60
2022-11-29T11:34:34.512Z,41.20
2022-11-29T11:37:26.484Z,38.70
2022-11-29T11:40:01.635Z,40.90
2022-11-29T11:42:39.762Z,38.10
2022-11-29T11:45:32.516Z,35.80
2022-11-29T11:48:12.899Z,35.60
2022-11-29T11:50:52.167Z,37.20
2022-11-29T11:53:28.901Z,43.30
2022-11-29T11:56:05.490Z,33.20
2022-11-29T11:58:41.312Z,36.40
2022-11-29T12:01:30.503Z,34.40
2022-11-29T12:04:13.086Z,33.00
2022-11-29T12:06:53.471Z,37.30
2022-11-29T12:09:36.453Z,31.00
2022-11-29T12:12:20.926Z,32.00
2022-11-29T12:15:00.945Z,37.70
2022-11-29T12:17:39.364Z,39.40
2022-11-29T12:20:29.092Z,42.00
2022-11-29T12:23:23.072Z,37.00
2022-11-29T12:26:00.435Z,42.80
2022-11-29T12:28:36.500Z,38.60
2022-11-29T12:31:24.305Z,52.80
2022-11-29T12:34:11.307Z,54.20
2022-11-29T12:36:53.288Z,50.70
2022-11-29T12:39:57.111Z,46.50
2022-11-29T12:42:47.662Z,47.20
2022-11-29T12:51:02.927Z,36.50
2022-11-29T12:53:55.282Z,36.10
2022-11-29T12:56:37.179Z,40.50
2022-11-29T12:59:32.788Z,31.90
2022-11-29T13:02:27.375Z,31.60
2022-11-29T13:05:07.802Z,29.10
2022-11-29T13:07:52.087Z,26.90
2022-11-29T13:10:34.584Z,29.20
2022-11-29T13:13:21.051Z,31.90
2022-11-29T13:16:02.583Z,27.60
2022-11-29T13:18:43.200Z,26.90
2022-11-29T13:21:20.425Z,34.10
2022-11-29T13:24:08.241Z,33.90
2022-11-29T13:26:43.296Z,29.80
2022-11-29T13:29:19.859Z,29.10
2022-11-29T13:31:53.111Z,31.20
2022-11-29T13:34:31.465Z,39.00
2022-11-29T13:37:19.148Z,32.20
2022-11-29T13:40:08.160Z,31.00
2022-11-29T13:42:48.010Z,27.50
2022-11-29T13:45:27.625Z,32.10
2022-11-29T13:48:02.069Z,35.20
2022-11-29T13:50:45.090Z,36.80
2022-11-29T13:53:21.798Z,34.60
2022-11-29T13:56:01.929Z,41.00
2022-11-29T13:58:42.439Z,32.50
2022-11-29T14:03:59.768Z,31.30
2022-11-29T14:06:39.318Z,33.30
2022-11-29T14:09:34.397Z,30.00
2022-11-29T14:12:26.502Z,32.40
2022-11-29T14:15:05.681Z,32.30
2022-11-29T14:17:53.654Z,38.10
2022-11-29T14:23:41.844Z,39.70
2022-11-29T14:42:18.919Z,39.70
2022-11-29T14:44:56.183Z,45.00
2022-11-29T14:47:33.883Z,49.60
2022-11-29T15:00:20.568Z,38.40
2022-11-29T15:02:57.631Z,40.70
2022-11-29T15:05:37.430Z,45.40
2022-11-29T15:08:19.079Z,44.90
2022-11-29T15:10:58.416Z,41.20
2022-11-29T15:13:34.875Z,41.40
2022-11-29T15:16:36.983Z,48.20
2022-11-29T15:19:55.357Z,45.00
2022-11-29T15:22:35.295Z,40.20
2022-11-29T15:25:16.277Z,47.20
2022-11-29T15:27:57.744Z,32.30
2022-11-29T15:30:38.493Z,38.20
2022-11-29T15:33:22.776Z,44.60
2022-11-29T15:35:57.815Z,44.40
2022-11-29T15:38:30.643Z,48.80
2022-11-29T15:41:03.541Z,48.30
2022-11-29T15:43:40.297Z,47.00
2022-11-29T15:46:23.114Z,51.10
2022-11-29T15:48:55.937Z,46.80
2022-11-29T15:51:35.255Z,50.20
2022-11-29T15:54:13.785Z,52.40
2022-11-29T15:56:52.057Z,54.90
2022-11-29T15:59:34.985Z,50.70
2022-11-29T16:02:17.273Z,49.50
2022-11-29T16:04:53.518Z,41.50
2022-11-29T16:07:29.279Z,47.40
2022-11-29T16:10:11.284Z,45.40
2022-11-29T16:12:57.864Z,45.60
2022-11-29T16:15:34.373Z,45.20
2022-11-29T16:18:15.551Z,50.70
2022-11-29T16:21:01.729Z,52.00
2022-11-29T16:23:41.430Z,58.50
2022-11-29T16:26:20.185Z,40.00
2022-11-29T16:28:56.443Z,49.20
2022-11-29T16:31:36.929Z,45.80
2022-11-29T16:36:48.657Z,53.00
2022-11-29T16:39:26.315Z,43.60
2022-11-29T16:42:20.524Z,54.50
2022-11-29T16:45:07.675Z,45.80
2022-11-29T16:47:58.264Z,51.20
2022-11-29T16:50:32.637Z,47.00
2022-11-29T16:53:38.201Z,45.20
2022-11-29T16:56:15.058Z,50.10
2022-11-29T16:59:16.928Z,44.90
2022-11-29T17:01:46.101Z,43.80
2022-11-29T17:04:23.728Z,46.90
2022-11-29T17:06:58.758Z,48.90
2022-11-29T17:09:34.478Z,58.40
2022-11-29T17:12:07.546Z,57.30
2022-11-29T17:14:40.511Z,52.30
2022-11-29T17:17:18.881Z,45.20
2022-11-29T17:19:51.945Z,57.20
2022-11-29T17:22:24.823Z,52.90
2022-11-29T17:24:57.731Z,48.80
2022-11-29T17:27:30.523Z,49.30
2022-11-29T17:30:03.686Z,47.70
2022-11-29T17:32:38.151Z,47.00
2022-11-29T17:35:12.021Z,52.10
2022-11-29T17:37:44.746Z,52.70
2022-11-29T17:40:19.033Z,50.70
2022-11-29T17:42:52.053Z,49.90
2022-11-29T17:45:24.994Z,45.90
2022-11-29T17:47:59.927Z,59.90
2022-11-29T17:50:32.915Z,52.00
2022-11-29T17:53:06.411Z,56.80
2022-11-29T17:55:39.661Z,55.90
2022-11-29T17:58:14.102Z,48.80
2022-11-29T18:00:47.058Z,59.80
2022-11-29T18:03:20.437Z,56.20
2022-11-29T18:05:53.824Z,56.30
2022-11-29T18:08:26.586Z,49.50
2022-11-29T18:11:08.308Z,55.50
2022-11-29T18:13:41.517Z,47.10
2022-11-29T18:16:17.117Z,50.60
2022-11-29T18:18:54.905Z,47.60
2022-11-29T18:21:28.055Z,57.80
2022-11-29T18:24:04.748Z,47.00
2022-11-29T18:26:38.797Z,56.40
2022-11-29T18:29:12.568Z,54.00
2022-11-29T18:31:47.420Z,54.60
2022-11-29T18:34:20.170Z,58.20
2022-11-29T18:36:53.273Z,56.60
2022-11-29T18:39:26.179Z,62.70
2022-11-29T18:41:59.097Z,50.80
2022-11-29T18:44:31.902Z,52.90
2022-11-29T18:47:06.114Z,46.50
2022-11-29T18:49:38.987Z,57.80
2022-11-29T18:52:12.160Z,53.80
2022-11-29T18:54:45.471Z,44.00
2022-11-29T18:57:18.462Z,49.20
2022-11-29T18:59:51.314Z,49.80
2022-11-29T19:02:24.086Z,44.40
2022-11-29T19:04:57.233Z,51.70
2022-11-29T19:07:31.599Z,45.80
2022-11-29T19:10:04.670Z,43.70
2022-11-29T19:12:37.562Z,47.40
2022-11-29T19:15:12.718Z,44.70
2022-11-29T19:17:45.510Z,50.90
2022-11-29T19:20:18.760Z,45.30
2022-11-29T19:22:53.848Z,56.90
2022-11-29T19:25:30.453Z,51.70
2022-11-29T19:28:03.231Z,50.20
2022-11-29T19:30:37.015Z,45.60
2022-11-29T19:33:09.958Z,56.90
2022-11-29T19:35:42.985Z,48.80
2022-11-29T19:38:17.072Z,58.00
2022-11-29T19:40:50.135Z,43.70
2022-11-29T19:43:22.959Z,61.20
2022-11-29T19:45:55.844Z,66.80
2022-11-29T19:48:28.980Z,36.10
2022-11-29T19:51:04.274Z,52.70
2022-11-29T19:53:37.739Z,51.10
2022-11-29T19:56:13.736Z,56.80
2022-11-29T19:58:46.855Z,51.70
2022-11-29T20:01:28.126Z,59.30
2022-11-29T20:04:02.326Z,54.70
2022-11-29T20:06:35.454Z,44.60
2022-11-29T20:09:09.178Z,48.10
2022-11-29T20:11:41.996Z,57.80
2022-11-29T20:14:16.970Z,62.40
2022-11-29T20:16:49.828Z,60.10
2022-11-29T20:19:22.771Z,61.60
2022-11-29T20:21:55.656Z,60.80
2022-11-29T20:24:30.410Z,64.20
2022-11-29T20:27:05.386Z,58.20
2022-11-29T20:29:38.127Z,56.50
2022-11-29T20:32:11.223Z,60.60
2022-11-29T20:34:48.144Z,60.30
2022-11-29T20:37:39.380Z,44.60
2022-11-29T20:40:21.320Z,64.70
2022-11-29T20:43:13.158Z,49.10
2022-11-29T20:45:47.181Z,42.20
2022-11-29T20:48:24.040Z,58.00
2022-11-29T20:51:01.256Z,53.50
2022-11-29T20:53:40.349Z,44.70
2022-11-29T20:56:13.955Z,66.70
2022-11-29T20:58:46.733Z,67.80
2022-11-29T21:01:19.651Z,65.00
2022-11-29T21:03:52.474Z,61.90
2022-11-29T21:06:25.247Z,61.70
2022-11-29T21:08:59.198Z,57.20
2022-11-29T21:11:33.210Z,62.80
2022-11-29T21:14:09.273Z,61.30
2022-11-29T21:16:43.034Z,60.10
2022-11-29T21:19:21.696Z,60.70
2022-11-29T21:22:07.120Z,65.60
2022-11-29T21:24:49.070Z,58.40
2022-11-29T21:27:30.125Z,51.70
2022-11-29T21:30:05.832Z,49.10
2022-11-29T21:32:40.254Z,59.20
2022-11-29T21:35:13.588Z,69.00
2022-11-29T21:37:47.222Z,55.60
2022-11-29T21:40:20.279Z,56.60
2022-11-29T21:42:53.135Z,64.00
2022-11-29T21:45:28.840Z,57.20
2022-11-29T21:48:03.741Z,53.60
2022-11-29T21:50:36.485Z,65.40
2022-11-29T21:53:09.408Z,45.90
2022-11-29T21:55:42.216Z,63.00
2022-11-29T21:58:14.921Z,58.40
2022-11-29T22:00:47.887Z,66.70
2022-11-29T22:03:20.782Z,81.20
2022-11-29T22:05:53.774Z,101.90
2022-11-29T22:08:26.683Z,108.20
2022-11-29T22:11:07.381Z,74.00
2022-11-29T22:14:01.161Z,101.40
2022-11-29T22:16:34.080Z,82.80
2022-11-29T22:19:06.970Z,73.90
2022-11-29T22:21:39.940Z,68.60
2022-11-29T22:24:14.359Z,64.70
2022-11-29T22:26:47.933Z,70.00
2022-11-29T22:29:21.184Z,52.20
2022-11-29T22:31:56.228Z,58.50
2022-11-29T22:34:29.439Z,58.40
2022-11-29T22:37:02.185Z,71.20
2022-11-29T22:39:34.900Z,61.80
2022-11-29T22:42:07.947Z,75.20
2022-11-29T22:44:40.766Z,69.40
2022-11-29T22:47:13.607Z,58.70
2022-11-29T22:49:46.362Z,56.80
2022-11-29T22:52:19.222Z,67.10
2022-11-29T22:54:51.959Z,64.20
2022-11-29T22:57:24.747Z,58.60
2022-11-29T22:59:57.618Z,63.00
2022-11-29T23:02:30.604Z,58.80
2022-11-29T23:05:03.576Z,67.80
2022-11-29T23:07:36.419Z,67.50
2022-11-29T23:10:11.548Z,48.50
2022-11-29T23:12:44.766Z,64.10
2022-11-29T23:15:17.742Z,61.10
2022-11-29T23:17:50.588Z,49.30
2022-11-29T23:20:23.385Z,64.10
2022-11-29T23:22:56.855Z,65.80
2022-11-29T23:25:30.160Z,53.30
2022-11-29T23:28:03.031Z,59.60
2022-11-29T23:30:36.054Z,58.70
2022-11-29T23:33:08.917Z,65.10
2022-11-29T23:35:41.637Z,62.60
2022-11-29T23:38:14.717Z,64.90
2022-11-29T23:40:47.845Z,57.40
2022-11-29T23:43:20.815Z,43.70
2022-11-29T23:45:53.886Z,57.00
2022-11-29T23:48:27.391Z,65.00
2022-11-29T23:51:00.176Z,62.00
2022-11-29T23:53:33.506Z,60.80
2022-11-29T23:56:08.867Z,58.90
2022-11-29T23:58:41.961Z,60.60
